createdAt,value
2017-07-15T00:02:18.371Z,14.80
2017-07-15T00:04:46.435Z,14.90
2017-07-15T00:07:14.519Z,15.00
2017-07-15T00:09:42.578Z,14.80
2017-07-15T00:12:10.645Z,14.70
2017-07-15T00:14:38.720Z,14.70
2017-07-15T00:17:06.781Z,14.70
2017-07-15T00:19:34.885Z,14.60
2017-07-15T00:22:02.947Z,14.40
2017-07-15T00:24:31.005Z,14.30
2017-07-15T00:26:59.089Z,14.30
2017-07-15T00:29:27.144Z,14.30
2017-07-15T00:31:55.243Z,14.20
2017-07-15T00:34:23.337Z,14.20
2017-07-15T00:36:51.401Z,14.20
2017-07-15T00:39:19.491Z,14.10
2017-07-15T00:41:47.549Z,14.00
2017-07-15T00:44:16.012Z,14.00
2017-07-15T00:46:44.091Z,13.90
2017-07-15T00:49:12.180Z,14.00
2017-07-15T00:51:40.638Z,13.90
2017-07-15T00:54:09.464Z,13.90
2017-07-15T00:56:37.547Z,14.00
2017-07-15T00:59:05.998Z,14.00
2017-07-15T01:01:34.062Z,14.00
2017-07-15T01:04:02.915Z,14.10
2017-07-15T01:06:31.408Z,14.00
2017-07-15T01:08:59.469Z,14.00
2017-07-15T01:11:27.528Z,14.20
2017-07-15T01:13:55.674Z,14.20
2017-07-15T01:16:24.544Z,14.10
2017-07-15T01:18:52.994Z,14.00
2017-07-15T01:21:21.057Z,14.00
2017-07-15T01:23:49.148Z,14.00
2017-07-15T01:26:17.199Z,13.90
2017-07-15T01:28:46.026Z,14.00
2017-07-15T01:31:14.109Z,14.00
2017-07-15T01:33:42.176Z,13.90
2017-07-15T01:36:10.259Z,13.80
2017-07-15T01:38:38.325Z,13.80
2017-07-15T01:41:06.385Z,13.80
2017-07-15T01:43:35.235Z,13.70
2017-07-15T01:46:03.683Z,13.60
2017-07-15T01:48:31.777Z,13.60
2017-07-15T01:51:00.626Z,13.50
2017-07-15T01:53:29.083Z,13.40
2017-07-15T01:55:57.178Z,13.50
2017-07-15T01:58:25.353Z,13.50
2017-07-15T02:00:54.247Z,13.50
2017-07-15T02:03:22.327Z,13.40
2017-07-15T02:05:50.386Z,13.40
2017-07-15T02:08:18.446Z,13.40
2017-07-15T02:10:46.919Z,13.40
2017-07-15T02:13:15.027Z,13.50
2017-07-15T02:15:43.188Z,13.50
2017-07-15T02:18:11.258Z,13.50
2017-07-15T02:20:40.397Z,13.50
2017-07-15T02:23:08.521Z,13.50
2017-07-15T02:25:36.613Z,13.40
2017-07-15T02:28:04.759Z,13.40
2017-07-15T02:30:32.943Z,13.40
2017-07-15T02:33:01.766Z,13.40
2017-07-15T02:35:29.826Z,13.30
2017-07-15T02:40:32.407Z,13.30
2017-07-15T02:43:00.580Z,13.30
2017-07-15T02:45:29.398Z,13.20
2017-07-15T02:47:57.489Z,13.20
2017-07-15T02:50:26.314Z,13.20
2017-07-15T02:52:54.375Z,13.20
2017-07-15T02:55:22.864Z,13.30
2017-07-15T02:57:51.680Z,13.30
2017-07-15T03:00:19.751Z,13.30
2017-07-15T03:02:47.924Z,13.40
2017-07-15T03:05:16.015Z,13.40
2017-07-15T03:07:44.161Z,13.60
2017-07-15T03:10:12.244Z,13.80
2017-07-15T03:12:40.340Z,13.90
2017-07-15T03:15:08.483Z,14.10
2017-07-15T03:17:36.665Z,14.20
2017-07-15T03:20:04.829Z,14.30
2017-07-15T03:22:33.422Z,14.40
2017-07-15T03:25:01.880Z,14.50
2017-07-15T03:27:34.998Z,14.40
2017-07-15T03:30:03.264Z,14.40
2017-07-15T03:32:31.850Z,14.50
2017-07-15T03:34:59.919Z,14.40
2017-07-15T03:37:27.982Z,14.40
2017-07-15T03:39:56.882Z,14.40
2017-07-15T03:42:24.943Z,14.30
2017-07-15T03:44:53.137Z,14.10
2017-07-15T03:47:21.314Z,14.20
2017-07-15T03:49:49.375Z,14.40
2017-07-15T03:52:17.555Z,14.40
2017-07-15T03:54:45.611Z,14.50
2017-07-15T03:57:13.671Z,14.60
2017-07-15T03:59:41.758Z,14.60
2017-07-15T04:02:09.845Z,14.70
2017-07-15T04:04:37.978Z,14.70
2017-07-15T04:07:06.066Z,14.70
2017-07-15T04:09:34.131Z,14.80
2017-07-15T04:12:02.191Z,14.90
2017-07-15T04:14:31.029Z,14.90
2017-07-15T04:16:59.197Z,14.80
2017-07-15T04:19:27.250Z,14.90
2017-07-15T04:21:55.330Z,14.90
2017-07-15T04:24:23.513Z,14.70
2017-07-15T04:26:52.350Z,14.50
2017-07-15T04:29:21.176Z,14.50
2017-07-15T04:31:49.279Z,14.60
2017-07-15T04:34:17.341Z,14.60
2017-07-15T04:36:45.389Z,14.50
2017-07-15T04:39:14.238Z,14.50
2017-07-15T04:41:42.715Z,14.50
2017-07-15T04:44:11.166Z,14.60
2017-07-15T04:46:40.010Z,14.50
2017-07-15T04:49:08.462Z,14.60
2017-07-15T04:51:36.579Z,14.60
2017-07-15T04:54:04.639Z,14.60
2017-07-15T04:56:32.705Z,14.70
2017-07-15T04:59:01.562Z,14.90
2017-07-15T05:01:29.718Z,15.20
2017-07-15T05:03:57.770Z,15.20
2017-07-15T05:06:26.254Z,15.30
2017-07-15T05:08:54.706Z,15.40
2017-07-15T05:11:22.837Z,15.60
2017-07-15T05:13:50.920Z,15.50
2017-07-15T05:16:19.446Z,15.50
2017-07-15T05:18:47.550Z,15.60
2017-07-15T05:21:15.602Z,15.60
2017-07-15T05:23:43.679Z,15.80
2017-07-15T05:26:11.740Z,15.80
2017-07-15T05:28:39.837Z,16.10
2017-07-15T05:31:07.895Z,16.00
2017-07-15T05:33:36.716Z,15.80
2017-07-15T05:36:04.874Z,16.10
2017-07-15T05:38:32.945Z,16.20
2017-07-15T05:41:00.993Z,16.40
2017-07-15T05:43:29.067Z,16.40
2017-07-15T05:45:58.258Z,16.30
2017-07-15T05:48:26.738Z,16.20
2017-07-15T05:50:54.794Z,16.20
2017-07-15T05:53:23.617Z,16.20
2017-07-15T05:55:51.794Z,16.10
2017-07-15T05:58:20.243Z,16.30
2017-07-15T06:00:48.338Z,16.20
2017-07-15T06:03:16.399Z,16.30
2017-07-15T06:05:44.498Z,16.40
2017-07-15T06:08:12.667Z,16.40
2017-07-15T06:10:40.730Z,16.50
2017-07-15T06:13:08.802Z,16.50
2017-07-15T06:15:36.881Z,16.40
2017-07-15T06:18:04.950Z,16.40
2017-07-15T06:20:33.035Z,16.40
2017-07-15T06:23:01.194Z,16.40
2017-07-15T06:25:29.267Z,16.50
2017-07-15T06:27:57.323Z,16.20
2017-07-15T06:30:25.523Z,16.00
2017-07-15T06:32:53.972Z,16.10
2017-07-15T06:35:22.072Z,16.20
2017-07-15T06:37:50.237Z,16.40
2017-07-15T06:40:18.299Z,16.50
2017-07-15T06:42:46.351Z,16.50
2017-07-15T06:45:15.199Z,16.40
2017-07-15T06:47:43.247Z,16.30
2017-07-15T06:50:11.343Z,16.20
2017-07-15T06:52:39.394Z,16.20
2017-07-15T06:55:07.442Z,16.40
2017-07-15T06:57:36.912Z,16.40
2017-07-15T07:00:04.966Z,16.50
2017-07-15T07:02:33.019Z,16.60
2017-07-15T07:05:01.862Z,16.60
2017-07-15T07:07:30.702Z,16.80
2017-07-15T07:09:58.764Z,17.00
2017-07-15T07:12:26.825Z,17.00
2017-07-15T07:14:54.903Z,16.90
2017-07-15T07:17:22.954Z,17.00
2017-07-15T07:19:51.022Z,17.30
2017-07-15T07:22:19.074Z,17.40
2017-07-15T07:24:47.930Z,17.30
2017-07-15T07:27:15.983Z,17.30
2017-07-15T07:29:44.431Z,17.40
2017-07-15T07:32:12.922Z,17.10
2017-07-15T07:34:40.975Z,17.00
2017-07-15T07:37:09.799Z,17.00
2017-07-15T07:39:37.891Z,16.90
2017-07-15T07:42:05.944Z,16.90
2017-07-15T07:44:34.006Z,17.10
2017-07-15T07:47:02.101Z,17.20
2017-07-15T07:49:30.542Z,17.20
2017-07-15T07:51:59.031Z,17.30
2017-07-15T07:54:27.086Z,17.10
2017-07-15T07:56:55.903Z,17.30
2017-07-15T07:59:23.995Z,17.50
2017-07-15T08:01:52.047Z,17.50
2017-07-15T08:04:20.098Z,17.50
2017-07-15T08:06:48.195Z,17.50
2017-07-15T08:09:16.354Z,17.90
2017-07-15T08:11:44.426Z,18.00
2017-07-15T08:14:12.513Z,18.10
2017-07-15T08:16:41.335Z,18.00
2017-07-15T08:19:09.387Z,17.90
2017-07-15T08:21:37.862Z,17.80
2017-07-15T08:24:06.038Z,18.00
2017-07-15T08:26:34.094Z,18.00
2017-07-15T08:29:02.150Z,18.10
2017-07-15T08:31:30.245Z,18.30
2017-07-15T08:33:58.318Z,18.20
2017-07-15T08:36:26.495Z,18.20
2017-07-15T08:38:54.578Z,18.40
2017-07-15T08:41:23.046Z,18.30
2017-07-15T08:43:51.131Z,18.00
2017-07-15T08:46:19.291Z,18.00
2017-07-15T08:48:47.481Z,17.90
2017-07-15T08:51:15.490Z,18.00
2017-07-15T08:53:44.442Z,18.00
2017-07-15T08:56:13.327Z,18.20
2017-07-15T08:58:41.394Z,18.40
2017-07-15T09:01:09.558Z,18.40
2017-07-15T09:03:37.634Z,18.70
2017-07-15T09:06:05.711Z,18.90
2017-07-15T09:08:33.885Z,18.70
2017-07-15T09:11:01.953Z,18.70
2017-07-15T09:13:30.031Z,18.70
2017-07-15T09:15:58.218Z,18.90
2017-07-15T09:18:26.259Z,19.30
2017-07-15T09:20:54.345Z,20.10
2017-07-15T09:23:22.522Z,20.80
2017-07-15T09:25:51.710Z,21.10
2017-07-15T09:28:19.807Z,21.40
2017-07-15T09:30:47.966Z,21.60
2017-07-15T09:33:16.452Z,21.30
2017-07-15T09:35:45.037Z,20.90
2017-07-15T09:38:13.482Z,20.30
2017-07-15T09:40:42.715Z,20.20
2017-07-15T09:43:11.559Z,20.30
2017-07-15T09:45:40.391Z,20.00
2017-07-15T09:48:08.463Z,19.90
2017-07-15T09:50:36.638Z,20.00
2017-07-15T09:53:04.702Z,20.10
2017-07-15T09:55:33.185Z,19.80
2017-07-15T09:58:01.669Z,19.70
2017-07-15T10:00:30.561Z,19.70
2017-07-15T10:02:58.635Z,19.80
2017-07-15T10:05:27.834Z,19.70
2017-07-15T10:07:56.007Z,19.60
2017-07-15T10:10:24.068Z,19.50
2017-07-15T10:12:52.151Z,19.40
2017-07-15T10:15:20.328Z,19.10
2017-07-15T10:17:48.398Z,19.00
2017-07-15T10:20:16.570Z,19.00
2017-07-15T10:22:44.630Z,19.20
2017-07-15T10:25:12.716Z,19.70
2017-07-15T10:27:41.194Z,20.90
2017-07-15T10:30:09.250Z,22.40
2017-07-15T10:32:37.755Z,22.40
2017-07-15T10:35:05.822Z,22.40
2017-07-15T10:37:34.296Z,21.90
2017-07-15T10:40:02.479Z,21.50
2017-07-15T10:42:30.551Z,20.90
2017-07-15T10:44:58.999Z,20.60
2017-07-15T10:47:27.510Z,20.50
2017-07-15T10:49:56.716Z,20.50
2017-07-15T10:52:24.783Z,20.40
2017-07-15T10:54:52.949Z,20.10
2017-07-15T10:57:22.255Z,19.90
2017-07-15T10:59:50.331Z,20.00
2017-07-15T11:02:18.440Z,19.90
2017-07-15T11:04:46.876Z,20.00
2017-07-15T11:07:14.947Z,20.20
2017-07-15T11:09:43.034Z,20.30
2017-07-15T11:12:11.082Z,20.30
2017-07-15T11:14:39.130Z,20.30
2017-07-15T11:17:07.611Z,20.20
2017-07-15T11:19:36.427Z,20.10
2017-07-15T11:22:04.870Z,20.30
2017-07-15T11:24:33.714Z,20.50
2017-07-15T11:27:02.177Z,20.60
2017-07-15T11:29:30.631Z,20.70
2017-07-15T11:31:59.118Z,20.80
2017-07-15T11:34:27.939Z,20.90
2017-07-15T11:36:55.996Z,20.90
2017-07-15T11:39:24.067Z,20.80
2017-07-15T11:41:52.119Z,20.60
2017-07-15T11:44:20.958Z,20.40
2017-07-15T11:46:49.015Z,20.40
2017-07-15T11:49:17.090Z,20.10
2017-07-15T11:51:45.262Z,20.20
2017-07-15T11:54:13.343Z,20.10
2017-07-15T11:56:41.791Z,20.30
2017-07-15T11:59:09.890Z,20.70
2017-07-15T12:01:37.979Z,21.10
2017-07-15T12:04:06.063Z,21.60
2017-07-15T12:06:34.243Z,21.80
2017-07-15T12:09:03.090Z,21.70
2017-07-15T12:11:31.581Z,21.60
2017-07-15T12:14:00.064Z,21.90
2017-07-15T12:16:28.135Z,22.10
2017-07-15T12:18:56.614Z,21.90
2017-07-15T12:21:24.795Z,21.80
2017-07-15T12:23:53.244Z,21.70
2017-07-15T12:26:22.093Z,21.70
2017-07-15T12:28:50.559Z,21.50
2017-07-15T12:31:18.647Z,21.60
2017-07-15T12:33:46.735Z,21.70
2017-07-15T12:36:14.859Z,21.70
2017-07-15T12:38:42.932Z,21.80
2017-07-15T12:41:11.518Z,21.80
2017-07-15T12:43:39.587Z,21.60
2017-07-15T12:46:07.659Z,21.30
2017-07-15T12:48:35.837Z,21.10
2017-07-15T12:51:03.887Z,21.10
2017-07-15T12:53:32.084Z,21.30
2017-07-15T12:56:00.125Z,21.40
2017-07-15T12:58:28.183Z,21.30
2017-07-15T13:00:57.034Z,21.60
2017-07-15T13:03:25.194Z,21.90
2017-07-15T13:05:53.243Z,22.20
2017-07-15T13:08:21.349Z,22.50
2017-07-15T13:10:49.423Z,22.40
2017-07-15T13:13:17.589Z,22.60
2017-07-15T13:15:46.363Z,22.50
2017-07-15T13:18:14.542Z,22.50
2017-07-15T13:20:42.619Z,22.50
2017-07-15T13:23:11.066Z,22.70
2017-07-15T13:25:39.171Z,22.50
2017-07-15T13:28:07.218Z,22.80
2017-07-15T13:30:35.312Z,22.80
2017-07-15T13:33:03.394Z,22.90
2017-07-15T13:35:31.966Z,22.80
2017-07-15T13:38:00.445Z,22.90
2017-07-15T13:40:28.521Z,22.90
2017-07-15T13:42:56.701Z,23.00
2017-07-15T13:45:25.275Z,23.00
2017-07-15T13:47:53.351Z,22.80
2017-07-15T13:50:21.521Z,22.60
2017-07-15T13:52:50.011Z,22.50
2017-07-15T13:55:18.183Z,22.70
2017-07-15T13:57:46.238Z,23.10
2017-07-15T14:00:14.323Z,23.30
2017-07-15T14:02:42.398Z,23.20
2017-07-15T14:05:10.470Z,23.20
2017-07-15T14:07:39.047Z,23.10
2017-07-15T14:10:07.531Z,23.00
2017-07-15T14:12:35.602Z,23.00
2017-07-15T14:15:03.777Z,22.80
2017-07-15T14:17:31.854Z,22.70
2017-07-15T14:19:59.923Z,22.70
2017-07-15T14:22:28.087Z,22.70
2017-07-15T14:24:56.167Z,22.90
2017-07-15T14:27:24.246Z,23.00
2017-07-15T14:29:52.414Z,23.10
2017-07-15T14:32:20.486Z,23.20
2017-07-15T14:34:48.538Z,23.60
2017-07-15T14:37:16.614Z,23.60
2017-07-15T14:39:44.667Z,23.50
2017-07-15T14:42:13.595Z,23.40
2017-07-15T14:44:41.670Z,23.40
2017-07-15T14:47:09.739Z,23.20
2017-07-15T14:49:37.786Z,23.10
2017-07-15T14:52:05.858Z,23.00
2017-07-15T14:54:33.939Z,23.40
2017-07-15T14:57:01.995Z,23.80
2017-07-15T14:59:30.049Z,24.00
2017-07-15T15:01:58.895Z,24.00
2017-07-15T15:04:26.935Z,24.00
2017-07-15T15:06:55.020Z,24.20
2017-07-15T15:09:23.074Z,25.10
2017-07-15T15:11:51.133Z,25.20
2017-07-15T15:14:19.970Z,25.90
2017-07-15T15:16:48.031Z,25.80
2017-07-15T15:19:16.083Z,26.30
2017-07-15T15:21:44.179Z,26.30
2017-07-15T15:24:12.226Z,25.30
2017-07-15T15:26:40.279Z,25.20
2017-07-15T15:29:09.142Z,24.10
2017-07-15T15:31:37.198Z,24.10
2017-07-15T15:34:05.286Z,23.80
2017-07-15T15:36:33.426Z,23.90
2017-07-15T15:39:01.493Z,23.90
2017-07-15T15:41:29.583Z,24.00
2017-07-15T15:43:57.635Z,23.90
2017-07-15T15:46:25.714Z,23.80
2017-07-15T15:48:53.887Z,23.90
2017-07-15T15:51:21.949Z,24.00
2017-07-15T15:53:50.440Z,24.10
2017-07-15T15:56:18.522Z,24.10
2017-07-15T15:58:46.697Z,24.30
2017-07-15T16:01:14.789Z,24.40
2017-07-15T16:03:43.217Z,24.50
2017-07-15T16:06:12.139Z,24.70
2017-07-15T16:08:40.223Z,24.90
2017-07-15T16:11:08.270Z,25.00
2017-07-15T16:13:36.342Z,25.00
2017-07-15T16:16:04.429Z,24.80
2017-07-15T16:18:32.482Z,24.70
2017-07-15T16:21:00.529Z,24.60
2017-07-15T16:23:28.625Z,24.70
2017-07-15T16:25:56.674Z,24.70
2017-07-15T16:28:24.728Z,24.60
2017-07-15T16:30:53.190Z,24.60
2017-07-15T16:33:21.241Z,24.60
2017-07-15T16:35:49.311Z,24.50
2017-07-15T16:38:17.364Z,24.50
2017-07-15T16:40:45.443Z,24.50
2017-07-15T16:43:13.495Z,24.50
2017-07-15T16:45:41.946Z,24.30
2017-07-15T16:48:10.039Z,24.50
2017-07-15T16:50:38.103Z,24.20
2017-07-15T16:53:06.915Z,24.10
2017-07-15T16:55:34.992Z,24.00
2017-07-15T16:58:03.054Z,24.10
2017-07-15T17:00:31.866Z,23.80
2017-07-15T17:03:00.337Z,23.60
2017-07-15T17:05:28.391Z,23.70
2017-07-15T17:07:56.841Z,23.60
2017-07-15T17:10:24.910Z,23.60
2017-07-15T17:12:53.027Z,23.70
2017-07-15T17:15:21.119Z,23.70
2017-07-15T17:17:49.191Z,23.50
2017-07-15T17:20:17.251Z,23.20
2017-07-15T17:22:45.462Z,23.00
2017-07-15T17:25:13.482Z,23.00
2017-07-15T17:27:41.581Z,23.00
2017-07-15T17:30:10.059Z,23.10
2017-07-15T17:32:38.227Z,22.90
2017-07-15T17:35:06.299Z,22.90
2017-07-15T17:37:34.383Z,22.90
2017-07-15T17:40:02.439Z,22.90
2017-07-15T17:42:30.519Z,23.00
2017-07-15T17:44:58.598Z,23.10
2017-07-15T17:47:26.662Z,23.10
2017-07-15T17:49:54.730Z,23.10
2017-07-15T17:52:22.909Z,22.90
2017-07-15T17:54:51.746Z,25.10
2017-07-15T17:57:20.588Z,22.90
2017-07-15T17:59:48.758Z,22.80
2017-07-15T18:02:16.844Z,22.60
2017-07-15T18:04:44.889Z,22.50
2017-07-15T18:07:12.980Z,22.30
2017-07-15T18:09:41.866Z,22.20
2017-07-15T18:12:10.042Z,22.10
2017-07-15T18:14:38.120Z,22.00
2017-07-15T18:17:06.290Z,21.90
2017-07-15T18:19:34.744Z,21.80
2017-07-15T18:22:03.554Z,21.70
2017-07-15T18:24:31.631Z,21.60
2017-07-15T18:26:59.715Z,21.60
2017-07-15T18:29:27.762Z,21.50
2017-07-15T18:31:55.819Z,21.40
2017-07-15T18:34:23.903Z,21.40
2017-07-15T18:36:52.355Z,21.20
2017-07-15T18:39:21.173Z,21.10
2017-07-15T18:41:49.246Z,20.90
2017-07-15T18:44:17.300Z,20.80
2017-07-15T18:46:45.388Z,20.80
2017-07-15T18:49:13.434Z,20.60
2017-07-15T18:51:41.888Z,20.50
2017-07-15T18:54:09.971Z,20.30
2017-07-15T18:56:38.038Z,20.20
2017-07-15T18:59:06.095Z,20.20
2017-07-15T19:01:34.167Z,20.00
2017-07-15T19:04:02.219Z,19.90
2017-07-15T19:06:30.306Z,19.80
2017-07-15T19:08:58.354Z,19.60
2017-07-15T19:11:26.410Z,19.60
2017-07-15T19:13:55.250Z,19.50
2017-07-15T19:16:23.698Z,19.40
2017-07-15T19:18:51.778Z,19.30
2017-07-15T19:21:19.826Z,19.30
2017-07-15T19:23:48.316Z,19.20
2017-07-15T19:26:16.367Z,19.10
2017-07-15T19:28:44.423Z,19.00
2017-07-15T19:31:13.263Z,18.90
2017-07-15T19:33:41.748Z,18.90
2017-07-15T19:36:09.806Z,18.80
2017-07-15T19:38:37.867Z,18.80
2017-07-15T19:41:06.370Z,18.80
2017-07-15T19:43:34.433Z,18.80
2017-07-15T19:46:02.463Z,18.70
2017-07-15T19:48:31.314Z,18.70
2017-07-15T19:50:59.370Z,18.70
2017-07-15T19:53:27.823Z,18.70
2017-07-15T19:55:56.659Z,18.70
2017-07-15T19:58:25.162Z,18.60
2017-07-15T20:00:53.230Z,18.50
2017-07-15T20:03:21.275Z,18.40
2017-07-15T20:05:49.352Z,18.20
2017-07-15T20:08:17.403Z,18.10
2017-07-15T20:10:46.246Z,18.10
2017-07-15T20:13:14.298Z,18.10
2017-07-15T20:15:43.886Z,18.00
2017-07-15T20:18:11.939Z,18.00
2017-07-15T20:20:39.991Z,18.00
2017-07-15T20:23:08.102Z,18.00
2017-07-15T20:25:36.153Z,18.00
2017-07-15T20:28:04.207Z,17.90
2017-07-15T20:30:32.290Z,17.90
2017-07-15T20:33:00.345Z,17.80
2017-07-15T20:35:29.179Z,17.80
2017-07-15T20:37:57.250Z,17.80
2017-07-15T20:40:25.302Z,17.70
2017-07-15T20:42:53.380Z,17.60
2017-07-15T20:45:21.842Z,17.50
2017-07-15T20:47:49.895Z,17.40
2017-07-15T20:50:18.745Z,17.50
2017-07-15T20:52:52.471Z,17.40
2017-07-15T20:55:20.592Z,17.20
2017-07-15T20:57:49.039Z,17.00
2017-07-15T21:00:17.853Z,17.00
2017-07-15T21:02:46.772Z,17.00
2017-07-15T21:05:15.547Z,16.90
2017-07-15T21:07:43.618Z,16.90
2017-07-15T21:10:11.695Z,16.90
2017-07-15T21:12:39.753Z,16.90
2017-07-15T21:15:07.827Z,16.80
2017-07-15T21:17:35.875Z,16.80
2017-07-15T21:20:04.725Z,16.70
2017-07-15T21:22:32.774Z,16.70
2017-07-15T21:25:00.839Z,16.60
2017-07-15T21:27:28.924Z,16.60
2017-07-15T21:29:58.130Z,16.80
2017-07-15T21:32:26.171Z,16.80
2017-07-15T21:34:54.224Z,16.70
2017-07-15T21:37:22.286Z,16.70
2017-07-15T21:39:51.160Z,16.60
2017-07-15T21:42:19.295Z,16.60
2017-07-15T21:44:47.365Z,16.50
2017-07-15T21:47:15.538Z,16.50
2017-07-15T21:49:43.619Z,16.50
2017-07-15T21:52:11.670Z,16.60
2017-07-15T21:54:39.854Z,16.80
2017-07-15T21:57:07.927Z,17.00
2017-07-15T21:59:35.987Z,17.10
2017-07-15T22:02:04.169Z,17.10
2017-07-15T22:04:32.255Z,17.10
2017-07-15T22:07:00.314Z,17.00
2017-07-15T22:09:28.386Z,17.00
2017-07-15T22:11:56.909Z,17.00
2017-07-15T22:14:25.047Z,17.10
2017-07-15T22:16:53.114Z,17.00
2017-07-15T22:19:21.204Z,17.00
2017-07-15T22:21:49.263Z,17.00
2017-07-15T22:24:17.325Z,17.00
2017-07-15T22:26:45.510Z,17.10
2017-07-15T22:29:13.567Z,17.20
2017-07-15T22:31:42.014Z,17.20
2017-07-15T22:34:10.958Z,17.10
2017-07-15T22:36:39.023Z,17.10
2017-07-15T22:39:07.078Z,17.10
2017-07-15T22:41:35.169Z,17.20
2017-07-15T22:44:03.230Z,17.20
2017-07-15T22:46:31.310Z,17.10
2017-07-15T22:48:59.407Z,17.20
2017-07-15T22:51:27.564Z,17.20
2017-07-15T22:53:55.730Z,17.20
2017-07-15T22:56:23.807Z,17.20
2017-07-15T22:58:52.047Z,17.30
2017-07-15T23:01:20.873Z,17.20
2017-07-15T23:03:49.038Z,17.10
2017-07-15T23:06:17.094Z,17.10
2017-07-15T23:08:45.156Z,17.10
2017-07-15T23:11:14.080Z,17.00
2017-07-15T23:13:42.142Z,17.00
2017-07-15T23:16:10.629Z,17.00
2017-07-15T23:18:38.710Z,17.00
2017-07-15T23:21:06.768Z,17.10
2017-07-15T23:23:34.821Z,17.00
2017-07-15T23:26:03.342Z,17.00
2017-07-15T23:28:31.397Z,16.90
2017-07-15T23:30:59.474Z,16.90
2017-07-15T23:33:27.545Z,16.80
2017-07-15T23:35:55.602Z,17.00
2017-07-15T23:38:23.687Z,17.10
2017-07-15T23:40:51.750Z,17.20
2017-07-15T23:43:19.807Z,17.10
2017-07-15T23:45:48.002Z,16.90
2017-07-15T23:48:16.078Z,16.90
2017-07-15T23:50:44.146Z,16.90
2017-07-15T23:53:12.331Z,17.10
2017-07-15T23:55:40.394Z,17.10
2017-07-15T23:58:08.463Z,17.10
